Time;durP1;ratioP1;P1;durP2;ratioP2;P2;SDS_P1;SDS_P2;PMS_P1;PMS_P2;Temp;Humidity;BMP_temperature;BMP_pressure;BME280_temperature;BME280_humidity;BME280_pressure;Samples;Min_cycle;Max_cycle;Signal;HPM_P1;HPM_P2
2022/07/26 00:00:11;;;;;;;8.35;7.50;;;21.10;99.90;;;-141.84;75.59;20807.78;5032790;28;20232;-64
2022/07/26 00:02:39;;;;;;;8.65;7.63;;;21.10;99.90;;;-141.84;75.34;20817.94;5050341;28;20708;-63
2022/07/26 00:05:17;;;;;;;9.60;8.60;;;21.10;99.90;;;-141.84;74.09;20809.81;5050393;28;20177;-64
2022/07/26 00:07:45;;;;;;;8.00;7.20;;;21.10;99.90;;;-141.84;75.10;20830.16;5051396;28;20284;-65
2022/07/26 00:10:14;;;;;;;8.00;7.20;;;21.00;99.90;;;-141.84;74.88;20773.22;5050336;28;20825;-65
2022/07/26 00:12:42;;;;;;;6.68;6.10;;;21.00;99.90;;;-141.84;75.33;20752.91;5050422;28;20316;-64
2022/07/26 00:15:11;;;;;;;7.35;6.60;;;21.00;99.90;;;-141.84;74.76;20767.13;5050255;28;20237;-63
2022/07/26 00:17:39;;;;;;;9.20;8.07;;;21.10;99.90;;;-141.84;75.31;20822.03;5050569;28;20224;-64
2022/07/26 00:20:09;;;;;;;7.65;6.95;;;21.00;99.90;;;-141.84;75.15;20775.25;5050571;28;20207;-64
2022/07/26 00:22:40;;;;;;;8.48;7.18;;;21.00;99.90;;;-141.84;75.16;20789.50;5051127;28;20201;-64
2022/07/26 00:25:09;;;;;;;8.40;7.40;;;21.00;99.90;;;-141.84;74.78;20765.09;5050250;28;20309;-64
2022/07/26 00:27:37;;;;;;;8.23;7.43;;;21.00;99.90;;;-141.84;74.98;20759.00;5050056;28;20601;-65
2022/07/26 00:30:09;;;;;;;8.82;7.93;;;20.90;99.90;;;-141.84;75.19;20761.03;5050208;28;20231;-63
2022/07/26 00:32:37;;;;;;;8.40;7.50;;;21.00;99.90;;;-141.84;75.75;20754.94;5050158;28;20232;-65
2022/07/26 00:35:06;;;;;;;9.07;8.23;;;21.00;99.90;;;-141.84;74.51;20822.03;5050298;28;20208;-64
2022/07/26 00:37:34;;;;;;;7.90;7.20;;;21.00;99.90;;;-141.84;75.00;20832.19;5051593;28;20205;-62
2022/07/26 00:40:05;;;;;;;9.32;7.65;;;21.00;99.90;;;-141.84;75.72;20811.84;5050695;28;20228;-64
2022/07/26 00:42:36;;;;;;;9.15;8.35;;;21.10;99.90;;;-141.84;75.52;20809.81;5050983;28;20234;-64
2022/07/26 00:45:06;;;;;;;8.82;7.93;;;21.00;99.90;;;-141.84;75.66;20817.94;5050679;28;20217;-63
2022/07/26 00:47:35;;;;;;;8.20;7.38;;;21.10;99.90;;;-141.84;75.25;20799.66;5050898;28;20225;-65
2022/07/26 00:50:07;;;;;;;8.43;7.63;;;21.10;99.90;;;-141.84;75.48;20763.06;5050486;28;20205;-64
2022/07/26 00:52:35;;;;;;;8.48;7.28;;;21.10;99.90;;;-141.84;76.15;20783.41;5054370;28;20202;-64
2022/07/26 00:55:06;;;;;;;8.93;7.57;;;21.10;99.90;;;-141.84;75.71;20842.34;5054063;28;20308;-66
2022/07/26 00:57:36;;;;;;;8.80;7.38;;;21.00;99.90;;;-141.84;74.91;20842.34;5037912;28;20301;-63
2022/07/26 01:00:08;;;;;;;8.43;7.18;;;21.10;99.90;;;-141.84;75.98;20811.84;5036611;28;20232;-64
2022/07/26 01:02:36;;;;;;;10.57;8.45;;;21.00;99.90;;;-141.84;73.86;20813.88;5054457;28;20625;-64
2022/07/26 01:05:05;;;;;;;8.55;7.75;;;21.10;99.90;;;-141.84;73.11;20846.41;5054197;28;20255;-65
2022/07/26 01:07:35;;;;;;;8.23;7.43;;;21.10;99.90;;;-141.84;74.35;20787.47;5054740;28;20229;-64
2022/07/26 01:10:11;;;;;;;7.57;6.82;;;21.10;99.90;;;-141.84;75.09;20767.13;5053939;28;20592;-65
2022/07/26 01:12:40;;;;;;;8.25;7.07;;;21.10;99.90;;;-141.84;75.96;20789.50;5053967;28;20597;-64
2022/07/26 01:15:11;;;;;;;7.10;6.50;;;21.00;99.90;;;-141.84;76.05;20779.31;5053654;28;20236;-65
2022/07/26 01:17:40;;;;;;;9.57;7.45;;;21.00;99.90;;;-141.84;75.60;20756.97;5054115;28;20828;-64
2022/07/26 01:20:12;;;;;;;8.48;7.55;;;21.00;99.90;;;-141.84;74.43;20789.50;5052862;28;20700;-64
2022/07/26 01:22:41;;;;;;;7.32;6.60;;;21.00;99.90;;;-141.84;73.31;20858.59;5053216;28;20202;-65
2022/07/26 01:25:10;;;;;;;8.30;7.50;;;21.20;99.90;;;-141.84;73.67;20817.94;5052633;28;20247;-63
2022/07/26 01:27:39;;;;;;;7.20;6.55;;;21.20;99.90;;;-141.84;75.05;20771.19;5052939;28;20233;-64
2022/07/26 01:30:11;;;;;;;8.27;7.40;;;21.10;99.90;;;-141.84;73.57;20846.41;5052601;28;20304;-65
2022/07/26 01:32:39;;;;;;;8.63;7.80;;;21.10;99.90;;;-141.84;74.33;20787.47;5052590;28;20768;-64
2022/07/26 01:35:08;;;;;;;8.27;7.55;;;21.10;99.90;;;-141.84;73.78;20785.44;5052782;28;20201;-64
2022/07/26 01:37:36;;;;;;;8.38;7.57;;;21.00;99.90;;;-141.84;73.94;20842.34;5053018;28;20189;-65
2022/07/26 01:40:09;;;;;;;9.05;8.07;;;21.10;99.90;;;-141.84;73.87;20830.16;5052480;28;20340;-63
2022/07/26 01:42:39;;;;;;;9.05;8.18;;;21.10;99.90;;;-141.84;74.64;20785.44;5052190;28;20231;-63
2022/07/26 01:45:09;;;;;;;8.75;7.95;;;21.10;99.90;;;-141.84;74.52;20791.53;5052195;28;20610;-64
2022/07/26 01:47:37;;;;;;;12.40;8.57;;;21.00;99.90;;;-141.84;73.54;20826.09;5051880;28;20220;-64
2022/07/26 01:50:08;;;;;;;9.90;8.90;;;21.10;99.90;;;-141.84;74.29;20775.25;5052167;28;20201;-66
2022/07/26 01:52:38;;;;;;;8.10;7.40;;;21.10;99.90;;;-141.84;74.54;20781.38;5052878;28;20185;-63
2022/07/26 01:55:08;;;;;;;9.43;8.38;;;21.10;99.90;;;-141.84;75.02;20783.41;5052171;28;20239;-64
2022/07/26 01:57:36;;;;;;;8.20;7.40;;;21.10;99.90;;;-141.84;74.91;20813.88;5035260;28;20729;-64
2022/07/26 02:00:06;;;;;;;8.00;7.20;;;21.10;99.90;;;-141.84;74.41;20789.50;5034190;28;20232;-63
2022/07/26 02:02:35;;;;;;;7.32;6.63;;;21.10;99.90;;;-141.84;74.99;20777.28;5051478;28;20232;-64
2022/07/26 02:05:03;;;;;;;8.00;7.30;;;21.10;99.90;;;-141.84;74.40;20797.63;5052077;28;20251;-63
2022/07/26 02:07:37;;;;;;;7.95;7.20;;;21.00;99.90;;;-141.84;74.82;20785.44;5052621;28;20574;-63
2022/07/26 02:10:10;;;;;;;8.38;7.10;;;21.00;99.90;;;-141.84;75.33;20738.66;5052179;28;20221;-65
2022/07/26 02:12:39;;;;;;;7.82;7.00;;;20.90;99.90;;;-141.84;75.41;20712.25;5051653;28;20728;-63
2022/07/26 02:15:09;;;;;;;8.50;7.53;;;20.80;99.90;;;-141.84;75.63;20708.19;5051522;28;20732;-67
2022/07/26 02:17:38;;;;;;;9.35;6.95;;;20.70;99.90;;;-141.84;76.21;20653.28;5051972;28;20580;-63
2022/07/26 02:20:09;;;;;;;9.65;8.13;;;20.70;99.90;;;-141.84;76.89;20681.75;5051345;28;20675;-66
2022/07/26 02:22:37;;;;;;;8.35;7.55;;;20.60;99.90;;;-141.84;77.47;20655.31;5052459;28;20193;-64
2022/07/26 02:25:07;;;;;;;8.65;7.35;;;20.40;99.90;;;-141.84;77.55;20608.56;5051678;28;20221;-64
2022/07/26 02:27:35;;;;;;;8.43;7.70;;;20.50;99.90;;;-141.84;77.69;20614.66;5051439;28;20240;-64
2022/07/26 02:30:04;;;;;;;8.65;7.50;;;20.40;99.90;;;-141.84;77.31;20645.16;5051365;28;20313;-63
2022/07/26 02:32:33;;;;;;;8.73;7.72;;;20.30;99.90;;;-141.84;77.62;20630.94;5051331;28;20651;-63
2022/07/26 02:35:01;;;;;;;8.52;7.72;;;20.30;99.90;;;-141.84;78.03;20616.69;5051376;28;20207;-63
2022/07/26 02:37:29;;;;;;;8.63;7.78;;;20.20;99.90;;;-141.84;78.18;20598.41;5051631;28;20213;-63
2022/07/26 02:40:04;;;;;;;9.73;7.95;;;20.20;99.90;;;-141.84;78.29;20614.66;5051328;28;20280;-64
2022/07/26 02:42:34;;;;;;;8.57;7.40;;;20.20;99.90;;;-141.84;78.69;20582.16;5051097;28;20236;-65
2022/07/26 02:45:02;;;;;;;8.90;8.00;;;20.20;99.90;;;-141.84;79.03;20586.22;5051235;28;20221;-62
2022/07/26 02:47:31;;;;;;;9.13;8.23;;;20.10;99.90;;;-141.84;79.38;20569.94;5050906;28;20227;-66
2022/07/26 02:49:59;;;;;;;10.57;8.10;;;20.10;99.90;;;-141.84;79.57;20569.94;5051014;28;20229;-64
2022/07/26 02:52:28;;;;;;;9.27;8.10;;;20.00;99.90;;;-141.84;79.35;20578.09;5051720;28;20201;-64
2022/07/26 02:54:56;;;;;;;9.00;8.20;;;20.00;99.90;;;-141.84;79.37;20584.19;5051134;28;20724;-65
2022/07/26 02:57:24;;;;;;;9.10;8.20;;;20.00;99.90;;;-141.84;78.41;20586.22;5035574;28;20229;-64
2022/07/26 02:59:54;;;;;;;8.75;7.97;;;20.00;99.90;;;-141.84;78.54;20584.19;5031511;28;20237;-63
2022/07/26 03:02:22;;;;;;;8.27;7.30;;;19.90;99.90;;;-141.84;77.28;20574.00;5050850;28;20225;-63
2022/07/26 03:04:50;;;;;;;10.65;7.43;;;20.00;99.90;;;-141.84;77.07;20586.22;5051622;28;20213;-64
2022/07/26 03:07:18;;;;;;;8.30;7.40;;;19.90;99.90;;;-141.84;76.67;20547.59;5050703;28;20229;-63
2022/07/26 03:09:46;;;;;;;7.70;6.78;;;19.90;99.90;;;-141.84;76.03;20541.50;5050825;28;20317;-63
2022/07/26 03:12:14;;;;;;;8.07;7.20;;;19.80;99.90;;;-141.84;76.44;20547.59;5050585;28;20239;-63
2022/07/26 03:14:42;;;;;;;8.70;6.47;;;19.80;99.90;;;-141.84;75.83;20551.66;5049498;28;20236;-65
2022/07/26 03:17:12;;;;;;;8.60;6.90;;;19.70;99.90;;;-141.84;75.92;20563.84;5050304;28;20210;-63
2022/07/26 03:19:40;;;;;;;7.15;6.13;;;19.70;99.90;;;-141.84;75.63;20571.97;5051386;28;20197;-65
2022/07/26 03:22:08;;;;;;;6.15;5.55;;;19.70;99.90;;;-141.84;74.74;20571.97;5050415;28;20736;-63
2022/07/26 03:24:36;;;;;;;6.25;5.72;;;19.70;99.90;;;-141.84;74.73;20569.94;5050586;28;20344;-63
2022/07/26 03:27:05;;;;;;;10.30;6.15;;;19.60;99.90;;;-141.84;73.52;20567.91;5050358;28;20237;-64
2022/07/26 03:29:33;;;;;;;7.25;5.47;;;19.60;99.90;;;-141.84;73.45;20549.63;5050555;28;20232;-64
2022/07/26 03:32:01;;;;;;;6.50;5.65;;;19.60;99.90;;;-141.84;73.87;20537.44;5050508;28;20207;-65
2022/07/26 03:34:30;;;;;;;6.80;5.13;;;19.50;99.90;;;-141.84;74.22;20565.88;5050768;28;20211;-65
2022/07/26 03:36:59;;;;;;;6.68;5.68;;;19.50;99.90;;;-141.84;73.26;20578.09;5050355;28;20239;-64
2022/07/26 03:39:27;;;;;;;7.78;5.80;;;19.40;99.90;;;-141.84;73.31;20545.56;5050742;28;20309;-63
2022/07/26 03:41:55;;;;;;;6.40;5.80;;;19.40;99.90;;;-141.84;72.34;20563.84;5050304;28;20228;-64
2022/07/26 03:44:23;;;;;;;8.35;5.72;;;19.50;99.90;;;-141.84;72.80;20576.03;5050415;28;20308;-64
2022/07/26 03:46:51;;;;;;;7.85;5.60;;;19.40;99.90;;;-141.84;71.80;20594.34;5050543;28;20205;-64
2022/07/26 03:49:19;;;;;;;6.85;5.43;;;19.40;99.90;;;-141.84;70.73;20590.28;5050070;28;20243;-62
2022/07/26 03:51:49;;;;;;;10.45;5.40;;;19.40;99.90;;;-141.84;71.29;20614.66;5050302;28;20228;-64
2022/07/26 03:54:18;;;;;;;5.72;4.78;;;19.40;99.90;;;-141.84;71.72;20537.44;5050336;28;20252;-65
2022/07/26 03:56:45;;;;;;;8.63;5.50;;;19.40;99.90;;;-141.84;72.01;20553.69;5040741;28;20229;-64
2022/07/26 03:59:13;;;;;;;7.47;5.40;;;19.40;99.90;;;-141.84;71.57;20529.28;5030167;28;20198;-64
2022/07/26 04:01:42;;;;;;;6.40;4.82;;;19.40;99.90;;;-141.84;71.29;20569.94;5046066;28;20204;-64
2022/07/26 04:04:12;;;;;;;6.30;4.80;;;19.40;99.90;;;-141.84;71.76;20543.53;5050071;28;20241;-63
2022/07/26 04:06:41;;;;;;;6.18;4.95;;;19.40;99.90;;;-141.84;70.72;20586.22;5050250;28;20664;-63
2022/07/26 04:09:12;;;;;;;7.05;4.75;;;19.40;99.90;;;-141.84;71.51;20545.56;5049822;28;20235;-63
2022/07/26 04:11:41;;;;;;;9.30;4.80;;;19.40;99.90;;;-141.84;70.02;20592.31;5049985;28;20229;-63
2022/07/26 04:14:09;;;;;;;5.80;5.03;;;19.50;99.90;;;-141.84;69.76;20628.91;5049803;28;20736;-64
2022/07/26 04:16:39;;;;;;;9.68;5.18;;;19.50;99.90;;;-141.84;68.51;20645.16;5050526;28;20206;-63
2022/07/26 04:19:11;;;;;;;7.47;4.97;;;19.50;99.90;;;-141.84;68.45;20665.50;5049767;28;20236;-64
2022/07/26 04:21:39;;;;;;;6.13;4.63;;;19.60;99.90;;;-141.84;67.82;20647.19;5050008;28;20292;-64
2022/07/26 04:24:08;;;;;;;7.38;4.47;;;19.60;99.90;;;-141.84;68.69;20639.06;5049942;28;20228;-62
2022/07/26 04:26:39;;;;;;;6.40;4.35;;;19.60;99.90;;;-141.84;67.57;20651.25;5051971;28;20232;-63
2022/07/26 04:29:07;;;;;;;5.38;4.50;;;19.60;99.90;;;-141.84;67.97;20622.81;5053562;28;20776;-63
2022/07/26 04:31:37;;;;;;;7.70;4.45;;;19.70;99.90;;;-141.84;68.03;20608.56;5054104;28;20310;-63
2022/07/26 04:34:06;;;;;;;8.48;3.90;;;19.60;99.90;;;-141.84;67.42;20716.31;5053563;28;20327;-63
2022/07/26 04:36:34;;;;;;;6.10;4.15;;;19.60;99.90;;;-141.84;66.15;20714.28;5053524;28;20229;-62
2022/07/26 04:39:02;;;;;;;4.70;3.97;;;19.70;99.90;;;-141.84;66.89;20675.66;5053408;28;20266;-62
2022/07/26 04:41:30;;;;;;;4.30;3.63;;;19.70;99.90;;;-141.84;66.35;20669.56;5053562;28;20233;-63
2022/07/26 04:44:00;;;;;;;7.75;4.35;;;19.80;99.90;;;-141.84;66.47;20679.72;5053716;28;20212;-62
2022/07/26 04:46:28;;;;;;;4.90;3.60;;;19.80;99.90;;;-141.84;66.58;20665.50;5054219;28;20197;-64
2022/07/26 04:48:56;;;;;;;8.02;4.13;;;19.80;99.90;;;-141.84;66.12;20736.63;5053217;28;20249;-63
2022/07/26 04:51:25;;;;;;;7.40;4.28;;;19.80;99.90;;;-141.84;65.48;20677.69;5053279;28;20638;-63
2022/07/26 04:53:53;;;;;;;5.63;3.80;;;19.80;99.90;;;-141.84;65.51;20704.13;5053252;28;20229;-62
2022/07/26 04:56:21;;;;;;;6.25;3.80;;;19.90;99.90;;;-141.84;64.96;20763.06;5046705;28;20234;-63
2022/07/26 04:58:49;;;;;;;5.40;4.07;;;19.90;99.90;;;-141.84;65.29;20740.69;5033923;28;20198;-63
2022/07/26 05:01:18;;;;;;;8.10;3.88;;;20.00;99.90;;;-141.84;65.23;20744.78;5045011;28;20221;-62
2022/07/26 05:03:46;;;;;;;4.93;3.92;;;20.00;99.90;;;-141.84;64.58;20750.88;5053326;28;20708;-64
2022/07/26 05:06:14;;;;;;;6.22;3.63;;;20.10;99.90;;;-141.84;64.79;20769.16;5052928;28;20724;-63
2022/07/26 05:08:43;;;;;;;5.35;3.63;;;20.10;99.90;;;-141.84;62.85;20815.91;5052751;28;20217;-62
2022/07/26 05:11:11;;;;;;;5.72;3.53;;;20.30;99.90;;;-141.84;62.35;20842.34;5052712;28;20236;-63
2022/07/26 05:13:39;;;;;;;5.00;3.33;;;20.50;99.90;;;-141.84;61.34;20915.53;5053704;28;20205;-64
2022/07/26 05:16:07;;;;;;;7.88;4.03;;;20.60;99.90;;;-141.84;59.22;21013.13;5052332;28;20228;-64
2022/07/26 05:18:40;;;;;;;6.05;3.20;;;20.90;99.90;;;-141.84;57.11;21175.75;5052913;28;20240;-64
2022/07/26 05:21:17;;;;;;;5.95;3.17;;;21.40;99.90;;;-141.84;55.52;21330.28;5052823;28;20232;-64
2022/07/26 05:23:45;;;;;;;5.80;2.92;;;21.90;99.90;;;-141.84;53.17;21533.59;5052730;28;20228;-63
2022/07/26 05:26:13;;;;;;;4.88;3.00;;;22.40;99.90;;;-141.84;51.36;21590.53;5052709;28;20198;-65
2022/07/26 05:28:42;;;;;;;3.55;2.85;;;22.70;99.90;;;-141.84;49.32;21789.78;5053494;28;20205;-64
2022/07/26 05:31:10;;;;;;;5.53;3.10;;;23.20;99.90;;;-141.84;48.46;21834.53;5052242;28;20229;-63
2022/07/26 05:33:39;;;;;;;7.53;4.50;;;23.30;99.90;;;-141.84;50.79;21633.22;5052500;28;20279;-64
2022/07/26 05:36:08;;;;;;;5.60;3.28;;;23.00;99.90;;;-141.84;52.49;21537.66;5052099;28;20225;-64
2022/07/26 05:38:37;;;;;;;4.10;2.70;;;22.80;99.90;;;-141.84;53.10;21433.97;5051767;28;20225;-64
2022/07/26 05:41:06;;;;;;;5.80;3.05;;;22.60;99.90;;;-141.84;54.17;21362.81;5052407;28;20201;-65
2022/07/26 05:43:35;;;;;;;4.80;3.10;;;22.30;99.90;;;-141.84;54.91;21291.66;5053187;28;20288;-64
2022/07/26 05:46:10;;;;;;;5.15;2.90;;;22.20;99.90;;;-141.84;55.80;21283.50;5052202;28;20596;-64
2022/07/26 05:48:40;;;;;;;4.13;2.80;;;22.20;99.90;;;-141.84;53.36;21385.16;5052214;28;20612;-64
2022/07/26 05:51:08;;;;;;;4.63;2.50;;;22.20;99.90;;;-141.84;51.71;21472.59;5052074;28;20233;-65
2022/07/26 05:53:37;;;;;;;7.85;3.05;;;22.30;99.90;;;-141.84;51.32;21456.34;5051869;28;20267;-64
2022/07/26 05:56:07;;;;;;;3.28;2.25;;;22.40;99.90;;;-141.84;51.50;21442.09;5047721;28;20202;-64
2022/07/26 05:58:36;;;;;;;7.00;2.70;;;22.40;99.90;;;-141.84;52.30;21478.69;5032840;28;20228;-64
2022/07/26 06:01:04;;;;;;;4.45;2.50;;;22.60;99.90;;;-141.84;52.12;21488.88;5042006;28;20228;-65
2022/07/26 06:03:32;;;;;;;4.90;2.40;;;22.70;99.90;;;-141.84;51.78;21541.72;5051727;28;20221;-64
2022/07/26 06:06:01;;;;;;;5.32;2.55;;;22.90;99.90;;;-141.84;50.89;21568.16;5051800;28;20237;-64
2022/07/26 06:08:29;;;;;;;4.97;2.55;;;22.90;99.90;;;-141.84;50.09;21584.44;5051930;28;20221;-64
2022/07/26 06:10:58;;;;;;;4.20;2.33;;;23.00;99.90;;;-141.84;51.14;21490.91;5051862;28;20597;-63
2022/07/26 06:13:26;;;;;;;3.63;2.45;;;22.80;99.90;;;-141.84;52.20;21419.72;5052059;28;20231;-62
2022/07/26 06:15:54;;;;;;;5.95;2.80;;;22.40;99.90;;;-141.84;53.34;21356.69;5051446;28;20231;-62
2022/07/26 06:18:22;;;;;;;3.97;2.40;;;22.30;99.90;;;-141.84;52.67;21415.66;5051518;28;20229;-61
2022/07/26 06:20:50;;;;;;;7.18;3.10;;;22.20;99.90;;;-141.84;53.10;21389.22;5051663;28;20720;-62
2022/07/26 06:23:20;;;;;;;4.55;2.72;;;22.10;99.90;;;-141.84;53.06;21372.97;5051612;28;20242;-63
2022/07/26 06:26:03;;;;;;;5.65;2.42;;;22.10;99.90;;;-141.84;53.26;21338.41;5051505;28;20185;-64
2022/07/26 06:28:31;;;;;;;6.35;2.22;;;22.10;99.90;;;-141.84;52.54;21375.00;5052153;28;20197;-63
2022/07/26 06:31:00;;;;;;;6.35;3.05;;;22.10;99.90;;;-141.84;51.81;21397.38;5051068;28;20257;-62
2022/07/26 06:33:28;;;;;;;3.35;2.17;;;22.10;99.90;;;-141.84;52.72;21360.78;5051351;28;20229;-62
2022/07/26 06:35:56;;;;;;;4.15;2.60;;;22.10;99.90;;;-141.84;52.40;21356.69;5051225;28;20229;-62
2022/07/26 06:38:25;;;;;;;5.25;2.22;;;22.10;99.90;;;-141.84;51.78;21429.91;5051301;28;20221;-62
2022/07/26 06:40:54;;;;;;;4.57;2.33;;;22.10;99.90;;;-141.84;52.66;21405.50;5051605;28;20214;-63
2022/07/26 06:43:22;;;;;;;3.33;2.30;;;22.20;99.90;;;-141.84;51.61;21429.91;5050412;28;20225;-62
2022/07/26 06:45:50;;;;;;;4.10;2.70;;;22.30;99.90;;;-141.84;51.23;21419.72;5050060;28;20240;-62
2022/07/26 06:48:18;;;;;;;4.43;2.50;;;22.30;99.90;;;-141.84;51.42;21454.28;5049921;28;20247;-62
2022/07/26 06:50:46;;;;;;;4.65;2.45;;;22.60;99.90;;;-141.84;50.47;21515.28;5049911;28;20268;-63
2022/07/26 06:53:14;;;;;;;3.25;2.13;;;22.80;99.90;;;-141.84;50.62;21529.53;5050343;28;20213;-62
2022/07/26 06:55:44;;;;;;;9.82;2.70;;;22.90;99.90;;;-141.84;50.59;21578.31;5049438;28;20266;-62
2022/07/26 06:58:12;;;;;;;7.00;2.65;;;22.90;99.90;;;-141.84;49.93;21539.69;5030122;28;20226;-63
2022/07/26 07:00:41;;;;;;;4.03;2.50;;;23.00;99.90;;;-141.84;49.68;21519.34;5039877;28;20217;-62
2022/07/26 07:03:09;;;;;;;17.13;4.03;;;23.00;99.90;;;-141.84;50.92;21529.53;5050049;28;20308;-62
2022/07/26 07:05:37;;;;;;;5.43;2.60;;;23.00;99.90;;;-141.84;50.59;21533.59;5050070;28;20607;-63
2022/07/26 07:08:06;;;;;;;9.65;3.08;;;23.00;99.90;;;-141.84;50.67;21499.03;5049586;28;20613;-63
2022/07/26 07:10:34;;;;;;;6.93;2.30;;;23.00;99.90;;;-141.84;50.39;21517.31;5050620;28;20212;-62
2022/07/26 07:13:04;;;;;;;3.58;2.00;;;23.00;99.90;;;-141.84;49.81;21562.06;5049576;28;20229;-62
2022/07/26 07:15:32;;;;;;;6.53;2.55;;;23.00;99.90;;;-141.84;50.00;21515.28;5049859;28;20311;-63
2022/07/26 07:18:00;;;;;;;5.18;2.28;;;23.00;99.90;;;-141.84;50.19;21564.09;5049939;28;20225;-62
2022/07/26 07:20:29;;;;;;;4.15;2.25;;;23.10;99.90;;;-141.84;49.29;21610.84;5049979;28;20225;-61
2022/07/26 07:22:57;;;;;;;4.85;2.17;;;23.20;99.90;;;-141.84;48.86;21623.06;5050361;28;20260;-63
2022/07/26 07:25:25;;;;;;;3.25;1.90;;;23.30;99.90;;;-141.84;49.52;21663.72;5030190;28;20698;-63
2022/07/26 07:27:58;;;;;;;5.13;2.22;;;23.50;99.90;;;-141.84;47.49;21724.72;5046081;28;20229;-61
2022/07/26 07:30:28;;;;;;;4.45;2.15;;;23.60;99.90;;;-141.84;48.41;21738.97;5037328;28;20229;-64
2022/07/26 07:32:56;;;;;;;8.43;2.40;;;23.80;99.90;;;-141.84;47.83;21743.03;5029281;28;20316;-62
2022/07/26 07:35:24;;;;;;;7.07;2.13;;;23.90;99.90;;;-141.84;46.65;21749.13;5029556;28;20313;-62
2022/07/26 07:38:00;;;;;;;5.70;2.40;;;23.80;99.90;;;-141.84;47.81;21724.72;5029738;28;20204;-64
2022/07/26 07:40:29;;;;;;;5.18;1.98;;;23.80;99.90;;;-141.84;47.72;21651.53;5030031;28;20204;-62
2022/07/26 07:42:59;;;;;;;7.35;1.90;;;23.70;99.90;;;-141.84;49.21;21635.25;5029594;28;20236;-63
2022/07/26 07:45:28;;;;;;;2.47;1.90;;;23.50;99.90;;;-141.84;47.24;21680.00;5029447;28;20226;-62
2022/07/26 07:47:56;;;;;;;3.28;2.13;;;23.50;99.90;;;-141.84;46.73;21653.56;5029231;28;20236;-62
2022/07/26 07:50:24;;;;;;;4.97;1.88;;;23.40;99.90;;;-141.84;47.31;21612.88;5029405;28;20225;-61
2022/07/26 07:52:56;;;;;;;6.43;1.70;;;23.30;99.90;;;-141.84;47.50;21602.72;5029857;28;20217;-63
2022/07/26 07:55:26;;;;;;;4.80;1.80;;;23.30;99.90;;;-141.84;47.66;21612.88;5049645;28;20738;-63
2022/07/26 07:58:15;;;;;;;16.90;3.30;;;23.40;99.90;;;-141.84;47.43;21653.56;5049131;28;20252;-64
2022/07/26 08:00:46;;;;;;;2.45;1.50;;;23.40;99.90;;;-141.84;46.81;21667.78;5049411;28;20220;-62
2022/07/26 08:03:15;;;;;;;5.50;1.65;;;23.30;99.90;;;-141.84;46.86;21635.25;5052911;28;20817;-61
2022/07/26 08:05:46;;;;;;;5.43;1.80;;;23.40;99.90;;;-141.84;46.19;21627.13;5053282;28;20220;-62
2022/07/26 08:08:17;;;;;;;2.97;1.63;;;23.40;99.90;;;-141.84;46.56;21590.53;5053082;28;20641;-62
2022/07/26 08:10:50;;;;;;;3.45;1.42;;;23.30;99.90;;;-141.84;47.19;21604.75;5053705;28;20255;-63
2022/07/26 08:13:20;;;;;;;2.97;1.77;;;23.30;99.90;;;-141.84;47.03;21574.25;5052930;28;20598;-63
2022/07/26 08:15:51;;;;;;;2.83;1.52;;;23.20;99.90;;;-141.84;46.90;21570.19;5053066;28;20256;-62
2022/07/26 08:18:20;;;;;;;4.25;1.80;;;23.10;99.90;;;-141.84;48.38;21574.25;5052940;28;20295;-62
2022/07/26 08:20:51;;;;;;;3.47;1.80;;;23.10;99.90;;;-141.84;47.63;21558.00;5053433;28;20320;-63
2022/07/26 08:23:19;;;;;;;6.72;2.03;;;23.10;99.90;;;-141.84;47.58;21590.53;5053167;28;20239;-62
2022/07/26 08:25:48;;;;;;;2.28;1.60;;;23.20;99.90;;;-141.84;48.24;21553.94;5053854;28;20288;-62
2022/07/26 08:28:26;;;;;;;3.08;1.85;;;23.20;99.90;;;-141.84;48.07;21598.66;5053209;28;20243;-62
2022/07/26 08:31:18;;;;;;;7.65;2.28;;;23.20;99.90;;;-141.84;47.47;21631.19;5052498;28;20915;-62
2022/07/26 08:33:47;;;;;;;3.97;1.90;;;23.40;99.90;;;-141.84;46.61;21669.81;5052659;28;20225;-63
2022/07/26 08:36:17;;;;;;;2.08;1.55;;;23.40;99.90;;;-141.84;47.72;21641.34;5052609;28;20720;-62
2022/07/26 08:38:45;;;;;;;2.85;1.77;;;23.30;99.90;;;-141.84;46.89;21647.47;5052830;28;20221;-63
2022/07/26 08:41:16;;;;;;;2.72;1.80;;;23.40;99.90;;;-141.84;47.16;21663.72;5053110;28;20580;-63
2022/07/26 08:43:45;;;;;;;5.93;2.00;;;23.50;99.90;;;-141.84;45.92;21745.06;5053329;28;20224;-63
2022/07/26 08:46:23;;;;;;;3.28;1.92;;;23.70;99.90;;;-141.84;46.20;21708.47;5052324;28;20232;-63
2022/07/26 08:48:55;;;;;;;2.42;1.88;;;23.80;99.90;;;-141.84;46.46;21696.25;5052446;28;20248;-62
2022/07/26 08:51:26;;;;;;;2.33;1.80;;;23.80;99.90;;;-141.84;45.58;21736.94;5052459;28;20248;-64
2022/07/26 08:53:58;;;;;;;3.47;2.03;;;23.80;99.90;;;-141.84;46.17;21741.00;5051960;28;20666;-63
2022/07/26 08:56:35;;;;;;;2.88;2.13;;;23.80;99.90;;;-141.84;45.48;21623.06;5044279;28;20900;-62
2022/07/26 08:59:05;;;;;;;4.30;2.20;;;23.50;99.90;;;-141.84;46.34;21649.50;5032031;28;20187;-62
2022/07/26 09:01:52;;;;;;;4.05;2.15;;;23.30;99.90;;;-141.84;46.03;21598.66;5030370;28;20202;-61
2022/07/26 09:04:23;;;;;;;4.35;2.40;;;23.20;99.90;;;-141.84;45.81;21734.88;5051714;28;20239;-63
2022/07/26 09:07:04;;;;;;;3.22;2.10;;;23.30;99.90;;;-141.84;45.45;21710.50;5052086;28;20320;-63
2022/07/26 09:09:34;;;;;;;4.68;2.10;;;23.50;99.90;;;-141.84;45.39;21785.72;5052109;28;20233;-62
2022/07/26 09:12:16;;;;;;;8.77;2.80;;;23.70;99.90;;;-141.84;44.81;21865.03;5051354;28;20718;-62
2022/07/26 09:14:46;;;;;;;3.00;2.25;;;24.00;99.90;;;-141.84;44.66;21881.28;5051666;28;20308;-64
2022/07/26 09:17:18;;;;;;;4.13;2.10;;;24.20;99.90;;;-141.84;44.42;21913.84;5051694;28;20735;-63
2022/07/26 09:20:02;;;;;;;7.10;2.35;;;24.40;99.90;;;-141.84;43.84;21974.84;5052681;28;20188;-65
2022/07/26 09:22:30;;;;;;;3.60;2.33;;;24.60;99.90;;;-141.84;43.30;22068.38;5052479;28;20233;-63
2022/07/26 09:24:59;;;;;;;4.55;2.70;;;24.80;99.90;;;-141.84;44.07;21962.63;5051898;28;20253;-62
2022/07/26 09:27:35;;;;;;;2.55;1.73;;;24.80;99.90;;;-141.84;44.09;21867.06;5051609;28;20798;-63
2022/07/26 09:30:08;;;;;;;7.72;2.90;;;24.50;99.90;;;-141.84;44.75;21797.94;5051470;28;20235;-62
2022/07/26 09:32:37;;;;;;;3.75;2.50;;;24.20;99.90;;;-141.84;45.31;21724.72;5051355;28;20224;-62
2022/07/26 09:35:15;;;;;;;3.97;2.53;;;23.90;99.90;;;-141.84;46.00;21753.19;5051183;28;20296;-63
2022/07/26 09:38:13;;;;;;;5.75;2.10;;;23.80;99.90;;;-141.84;44.08;21842.66;5051515;28;20224;-63
2022/07/26 09:40:42;;;;;;;3.17;2.25;;;24.00;99.90;;;-141.84;43.71;21873.16;5052216;28;20276;-63
2022/07/26 09:43:17;;;;;;;2.47;2.08;;;24.20;99.90;;;-141.84;43.56;21921.97;5051148;28;20220;-62
2022/07/26 09:46:04;;;;;;;2.78;1.85;;;24.30;99.90;;;-141.84;43.64;21928.06;5051107;28;20664;-63
2022/07/26 09:48:36;;;;;;;3.00;2.13;;;24.40;99.90;;;-141.84;43.45;22003.31;5048027;28;20307;-62
2022/07/26 09:51:39;;;;;;;2.60;2.08;;;24.60;99.90;;;-141.84;43.28;22043.97;5031262;28;20249;-65
2022/07/26 09:54:09;;;;;;;3.00;2.15;;;24.70;99.90;;;-141.84;42.23;21993.13;5021576;28;20238;-62
2022/07/26 09:56:47;;;;;;;3.25;2.03;;;24.70;99.90;;;-141.84;41.79;22043.97;5024285;28;20214;-63
2022/07/26 09:59:18;;;;;;;4.32;2.17;;;24.80;99.90;;;-141.84;42.04;22064.31;5050826;28;20833;-63
2022/07/26 10:01:48;;;;;;;3.30;2.10;;;24.90;99.90;;;-141.84;42.19;22048.03;5051261;28;20616;-62
2022/07/26 10:04:19;;;;;;;3.65;1.80;;;24.90;99.90;;;-141.84;42.13;22076.50;5050658;28;20225;-61
2022/07/26 10:06:48;;;;;;;3.20;1.88;;;24.90;99.90;;;-141.84;41.96;22082.63;5051070;28;20232;-65
2022/07/26 10:09:17;;;;;;;2.90;1.80;;;25.00;99.90;;;-141.84;42.61;22013.47;5050770;28;20256;-63
2022/07/26 10:11:52;;;;;;;4.30;1.98;;;24.90;99.90;;;-141.84;43.40;21924.00;5050605;28;20221;-63
2022/07/26 10:14:44;;;;;;;3.60;1.88;;;24.70;99.90;;;-141.84;42.46;21962.63;5050674;28;20241;-63
2022/07/26 10:17:45;;;;;;;3.63;1.88;;;24.70;99.90;;;-141.84;42.78;21982.97;5050555;28;20708;-63